createdAt,value
2023-10-17T08:08:02.450Z,5.80
2023-10-17T08:12:56.145Z,6.10
2023-10-17T08:17:50.556Z,6.40
2023-10-17T08:22:58.024Z,6.80
2023-10-17T08:27:55.705Z,7.10
2023-10-17T08:32:56.846Z,7.60
2023-10-17T08:37:53.769Z,7.60
2023-10-17T08:42:51.318Z,7.90
2023-10-17T08:47:47.590Z,8.20
2023-10-17T08:52:42.946Z,8.40
2023-10-17T08:57:38.751Z,8.50
2023-10-17T09:02:34.045Z,8.70
2023-10-17T09:07:33.937Z,9.00
2023-10-17T09:12:27.501Z,9.20
2023-10-17T09:17:31.954Z,9.40
2023-10-17T09:22:45.305Z,9.50
2023-10-17T09:27:38.922Z,9.80
2023-10-17T09:32:37.219Z,10.00
2023-10-17T09:37:31.608Z,10.20
2023-10-17T09:42:27.592Z,10.40
2023-10-17T09:47:25.348Z,10.60
2023-10-17T09:52:22.691Z,10.70
2023-10-17T09:57:21.846Z,10.90
2023-10-17T10:02:21.661Z,11.20
2023-10-17T10:07:22.607Z,11.30
2023-10-17T10:12:16.841Z,11.30
2023-10-17T10:17:10.926Z,11.30
2023-10-17T10:22:08.044Z,11.50
2023-10-17T10:27:22.235Z,11.70
2023-10-17T10:32:35.818Z,12.10
2023-10-17T10:37:31.114Z,12.30
2023-10-17T10:42:27.190Z,12.40
2023-10-17T10:47:20.868Z,12.50
2023-10-17T10:52:14.748Z,12.60
2023-10-17T10:57:10.036Z,12.70
2023-10-17T11:02:04.046Z,12.80
2023-10-17T11:06:57.580Z,13.00
2023-10-17T11:11:52.386Z,13.00
2023-10-17T11:16:51.945Z,13.00
2023-10-17T11:21:46.090Z,12.90
2023-10-17T11:26:42.389Z,12.80
2023-10-17T11:31:36.795Z,12.80
2023-10-17T11:36:37.154Z,12.90
2023-10-17T11:41:32.896Z,13.10
2023-10-17T11:46:33.402Z,13.30
2023-10-17T11:51:30.515Z,13.30
2023-10-17T11:56:27.858Z,13.50
2023-10-17T12:01:21.560Z,13.40
2023-10-17T12:06:18.396Z,13.20
2023-10-17T12:11:12.477Z,13.30
2023-10-17T12:16:11.226Z,13.50
2023-10-17T12:21:06.064Z,13.60
2023-10-17T12:26:02.907Z,13.60
2023-10-17T12:30:56.899Z,14.10
2023-10-17T12:35:53.488Z,14.20
2023-10-17T12:40:47.508Z,14.00
2023-10-17T12:45:41.511Z,13.90
2023-10-17T12:50:36.668Z,14.10
2023-10-17T12:55:31.964Z,15.20
2023-10-17T13:00:29.180Z,16.10
2023-10-17T13:05:23.140Z,17.30
2023-10-17T13:10:17.038Z,17.90
2023-10-17T13:15:16.946Z,19.40
2023-10-17T13:20:19.494Z,20.60
2023-10-17T13:25:23.839Z,20.80
2023-10-17T13:30:20.533Z,20.70
2023-10-17T13:35:14.418Z,21.00
2023-10-17T13:40:11.626Z,20.80
2023-10-17T13:45:06.880Z,20.30
2023-10-17T13:50:02.138Z,20.80
2023-10-17T13:54:55.749Z,20.60
2023-10-17T13:59:54.686Z,20.70
2023-10-17T14:04:49.035Z,21.30
2023-10-17T14:09:44.516Z,21.00
2023-10-17T14:14:38.109Z,20.00
2023-10-17T14:19:38.626Z,19.30
2023-10-17T14:24:51.167Z,19.00
2023-10-17T14:29:47.036Z,18.80
2023-10-17T14:34:40.654Z,20.70
2023-10-17T14:39:34.820Z,23.20
2023-10-17T14:44:30.436Z,24.00
2023-10-17T14:49:25.898Z,21.90
2023-10-17T14:54:19.539Z,18.30
2023-10-17T14:59:13.229Z,15.90
2023-10-17T15:04:07.362Z,14.50
2023-10-17T15:09:04.926Z,13.60
2023-10-17T15:13:58.569Z,13.20
2023-10-17T15:18:53.523Z,12.90
2023-10-17T15:23:47.648Z,12.70
2023-10-17T15:28:45.991Z,12.60
2023-10-17T15:33:40.529Z,12.40
2023-10-17T15:38:35.250Z,12.20
2023-10-17T15:43:29.098Z,11.90
2023-10-17T15:48:25.363Z,11.80
2023-10-17T15:53:19.263Z,11.60
2023-10-17T15:58:13.081Z,11.40
2023-10-17T16:03:06.947Z,11.20
2023-10-17T16:08:02.332Z,11.00
2023-10-17T16:12:55.979Z,10.90
2023-10-17T16:17:49.849Z,10.80
2023-10-17T16:22:43.689Z,10.70
2023-10-17T16:27:39.233Z,10.60
2023-10-17T16:32:33.570Z,10.40
2023-10-17T16:37:27.292Z,10.30
2023-10-17T16:42:21.345Z,10.10
2023-10-17T16:47:16.711Z,10.00
2023-10-17T16:52:11.325Z,9.90
2023-10-17T16:57:06.598Z,9.80
2023-10-17T17:02:00.754Z,9.60
2023-10-17T17:06:55.945Z,9.50
2023-10-17T17:11:49.923Z,9.40
2023-10-17T17:16:44.741Z,9.50
2023-10-17T17:21:38.772Z,9.50
